Weather reports worldwide

Advertisment
Aragues Del Puerto, Spain (8095): temperature & dewpoint: 18.03.2019 17:00:00 - 24.03.2019 17:00:00 (CET)Aragues Del Puerto, Spain (8095): wind speed & gusts: 18.03.2019 17:00:00 - 24.03.2019 17:00:00 (CET)Aragues Del Puerto, Spain (8095): wind direction: 18.03.2019 17:00:00 - 24.03.2019 17:00:00 (CET)Aragues Del Puerto, Spain (8095): visibility: 18.03.2019 17:00:00 - 24.03.2019 17:00:00 (CET)Aragues Del Puerto, Spain (8095): sunshine duration: 18.03.2019 17:00:00 - 24.03.2019 17:00:00 (CET)Aragues Del Puerto, Spain (8095): precipitation: 18.03.2019 17:00:00 - 24.03.2019 17:00:00 (CET)
Date & Time tt [°C] td [°C] ff [km/h] ff [kn] fx [km/h] fx [kn] dd vv [km] sd [min] rr [mm]
24.03.2019 17:00:00 - - - - - - - - - -
24.03.2019 16:00:00 17,7 -3,3 22 12 36 19 NE 20 60 0,0
24.03.2019 15:00:00 19,8 -5,4 8 4 28 15 W 20 60 0,0
24.03.2019 14:00:00 18,8 -7,5 7 4 31 17 ENE 20 60 0,0
24.03.2019 13:00:00 17,5 -8,6 22 12 31 17 NE 20 60 -
24.03.2019 12:00:00 18,3 -3,9 8 4 15 8 SSW 20 60 0,0
24.03.2019 11:00:00 16,4 0,0 5 3 10 5 SSE 20 60 0,0
24.03.2019 10:00:00 13,5 0,2 4 2 14 7 SSE 20 60 0,0
24.03.2019 09:00:00 9,3 -0,3 9 5 17 9 NNE 20 45 0,0
24.03.2019 08:00:00 6,4 -0,5 5 3 16 9 N 20 0 0,0
24.03.2019 07:00:00 6,3 -0,7 6 3 18 10 N 20 0 -
24.03.2019 06:00:00 7,2 -0,3 13 7 20 11 NNE 20 0 0,0
24.03.2019 05:00:00 7,3 -0,5 6 3 21 11 N 20 0 0,0
24.03.2019 04:00:00 7,7 -0,3 10 6 19 11 N 20 0 0,0
24.03.2019 03:00:00 7,8 -0,3 15 8 23 12 NNE 20 0 0,0
24.03.2019 02:00:00 8,2 -0,5 16 9 23 13 NNE 20 0 0,0
24.03.2019 01:00:00 8,6 -0,5 15 8 24 13 NNE 20 0 -
24.03.2019 00:00:00 9,2 -0,5 16 9 23 12 NNE 20 0 0,0
23.03.2019 23:00:00 9,7 -0,3 13 7 20 11 NNE 20 0 0,0
23.03.2019 22:00:00 10,9 -0,5 11 6 22 12 NNE 20 0 0,0
23.03.2019 21:00:00 11,7 -0,5 15 8 20 11 NNE 20 0 0,0
23.03.2019 20:00:00 13,9 -1,0 7 4 12 6 N 20 0 0,0
23.03.2019 19:00:00 16,2 -1,4 6 3 15 8 S 20 11 -
23.03.2019 18:00:00 18,4 -2,5 6 3 18 10 WSW 20 57 0,0
23.03.2019 17:00:00 18,9 -3,9 6 4 26 14 SSW 20 25 0,0
23.03.2019 16:00:00 19,9 -3,0 12 7 26 14 SSW 20 60 0,0
23.03.2019 15:00:00 19,6 -3,3 11 6 27 15 SSW 20 60 0,0
23.03.2019 14:00:00 19,5 -3,6 11 6 24 13 S 20 60 0,0
23.03.2019 13:00:00 17,8 -3,0 11 6 23 12 ENE 20 60 -
23.03.2019 12:00:00 17,7 -2,0 9 5 19 10 SSE 20 60 0,0
23.03.2019 11:00:00 15,9 -0,5 6 3 12 6 S 20 60 0,0
23.03.2019 10:00:00 12,5 0,9 3 2 14 8 E 20 60 0,0
23.03.2019 09:00:00 8,9 -0,3 8 5 16 9 NE 20 45 0,0
23.03.2019 08:00:00 5,9 -1,4 5 3 16 8 NNE 20 0 0,0
23.03.2019 07:00:00 6,2 -1,4 8 4 17 9 N 20 0 -
23.03.2019 06:00:00 6,3 -1,7 9 5 17 9 NNE 20 0 0,0
23.03.2019 05:00:00 6,5 -1,4 9 5 18 10 NNE 20 0 0,0
23.03.2019 04:00:00 6,9 -1,2 8 4 17 9 N 20 0 0,0
23.03.2019 03:00:00 7,0 -1,2 11 6 19 10 N 20 0 0,0
23.03.2019 02:00:00 7,2 -1,2 10 5 21 11 N 20 0 0,0
23.03.2019 01:00:00 7,1 -1,4 10 6 17 9 N 20 0 -
23.03.2019 00:00:00 7,2 -1,2 9 5 18 10 NNE 20 0 0,0
22.03.2019 23:00:00 7,0 -1,2 5 3 19 10 NNE 20 0 0,0
22.03.2019 22:00:00 8,0 -1,2 8 4 16 9 NNE 20 0 0,0
22.03.2019 21:00:00 9,0 -1,2 11 6 20 11 NNE 20 0 0,0
22.03.2019 20:00:00 10,5 -1,0 6 4 14 7 N 20 0 0,0
22.03.2019 19:00:00 13,2 -1,4 9 5 19 11 SW 20 9 -
22.03.2019 18:00:00 15,6 -2,5 9 5 24 13 SSW 20 60 0,0
22.03.2019 17:00:00 16,4 -2,7 13 7 26 14 SW 20 60 0,0
22.03.2019 16:00:00 16,7 -2,5 13 7 25 13 SSW 20 60 0,0
22.03.2019 15:00:00 16,9 -2,7 7 4 23 12 SW 20 60 0,0
22.03.2019 14:00:00 16,2 -2,7 12 7 27 14 SSW 20 60 0,0
22.03.2019 13:00:00 15,4 -3,0 8 4 21 11 SSE 20 60 -
22.03.2019 12:00:00 14,3 -3,6 11 6 23 12 SSW 20 60 0,0
22.03.2019 11:00:00 13,1 -3,6 9 5 14 8 S 20 60 0,0
22.03.2019 10:00:00 11,3 -2,0 4 2 15 8 ENE 20 60 0,0
22.03.2019 09:00:00 6,6 -1,7 8 5 16 9 NE 20 43 0,0
22.03.2019 08:00:00 3,3 -4,2 6 4 21 11 N 20 0 0,0
22.03.2019 07:00:00 3,2 -4,5 9 5 19 10 N 20 0 -
22.03.2019 06:00:00 3,2 -4,2 13 7 19 11 NNE 20 0 0,0
22.03.2019 05:00:00 2,3 -3,6 6 3 16 9 N 20 0 0,0
22.03.2019 04:00:00 2,8 -3,3 7 4 17 9 N 20 0 0,0
22.03.2019 03:00:00 2,9 -3,0 9 5 20 11 N 20 0 0,0
22.03.2019 02:00:00 2,8 -3,0 6 3 21 11 N 20 0 0,0
22.03.2019 01:00:00 3,5 -3,0 14 8 22 12 NNE 20 0 -
22.03.2019 00:00:00 3,7 -3,0 10 5 21 12 NNE 20 0 0,0
21.03.2019 23:00:00 4,2 -3,0 9 5 22 12 NNE 20 0 0,0
21.03.2019 22:00:00 4,9 -3,0 14 8 20 11 NNE 20 0 0,0
21.03.2019 21:00:00 6,1 -2,7 13 7 19 10 NNE 20 0 0,0
21.03.2019 20:00:00 7,8 -3,0 6 3 19 11 N 20 0 0,0
21.03.2019 19:00:00 10,2 -3,9 9 5 21 11 SW 20 8 -
21.03.2019 18:00:00 12,5 -4,8 10 5 22 12 SW 20 60 0,0
21.03.2019 17:00:00 13,2 -5,4 11 6 27 15 SW 20 60 0,0
21.03.2019 16:00:00 13,8 -6,0 9 5 22 12 S 20 60 0,0
21.03.2019 15:00:00 13,0 -6,7 14 8 27 15 S 20 60 0,0
21.03.2019 14:00:00 - - - - - - - - - -
21.03.2019 13:00:00 - - - - - - - - - -
21.03.2019 12:00:00 - - - - - - - - - -
21.03.2019 11:00:00 10,1 -6,4 6 4 15 8 SSE 20 60 0,0
21.03.2019 10:00:00 7,2 -6,4 4 2 19 11 ENE 20 60 0,0
21.03.2019 09:00:00 3,8 -6,4 11 6 16 9 NE 20 42 0,0
21.03.2019 08:00:00 -0,4 -8,2 2 1 11 6 NNW 20 0 0,0
21.03.2019 07:00:00 -0,7 -8,2 3 1 14 7 NNE 20 0 -
21.03.2019 06:00:00 0,5 -8,2 7 4 19 10 N 20 0 0,0
21.03.2019 05:00:00 -0,4 -8,2 4 2 13 7 NNE 20 0 0,0
21.03.2019 04:00:00 -0,1 -8,2 3 2 9 5 N 20 0 0,0
21.03.2019 03:00:00 0,6 -8,6 5 3 15 8 NNE 20 0 0,0
21.03.2019 02:00:00 0,5 -8,6 3 1 9 5 WSW 20 0 0,0
21.03.2019 01:00:00 1,6 -8,6 6 3 9 5 N 20 0 -
21.03.2019 00:00:00 1,2 -6,7 2 1 6 3 N 20 0 0,0
20.03.2019 23:00:00 2,3 -7,1 3 2 19 10 NE 20 0 0,0
20.03.2019 22:00:00 4,0 -6,0 4 2 40 22 S 20 0 0,0
20.03.2019 21:00:00 5,6 -7,5 22 12 40 21 NNE 20 0 0,0
20.03.2019 20:00:00 5,9 -6,7 17 9 48 26 NNE 20 0 0,0
20.03.2019 19:00:00 7,0 -6,7 25 13 47 26 NNE 20 8 -
20.03.2019 18:00:00 8,2 -6,4 29 16 45 25 NNE 20 60 0,0
20.03.2019 17:00:00 9,5 -7,1 25 14 45 25 NNE 20 60 0,0
20.03.2019 16:00:00 11,0 -9,4 21 11 36 19 NNE 20 60 0,0
20.03.2019 15:00:00 10,8 -11,7 22 12 41 22 NNE 20 60 0,0
20.03.2019 14:00:00 10,0 -10,3 25 14 47 25 NNE 20 60 0,0
20.03.2019 13:00:00 9,1 -9,4 29 16 49 27 NNE 20 60 -
20.03.2019 12:00:00 9,7 -12,2 23 12 41 22 NE 20 60 0,0
20.03.2019 11:00:00 8,1 -12,8 26 14 41 22 NE 20 60 0,0
20.03.2019 10:00:00 6,5 -8,2 14 8 29 16 ESE 20 60 0,0
20.03.2019 09:00:00 3,8 -6,7 11 6 22 12 ESE 20 41 0,0
20.03.2019 08:00:00 0,2 -7,1 5 3 16 9 S 20 0 0,0
20.03.2019 07:00:00 -0,3 -7,1 5 3 11 6 SW 20 0 -
20.03.2019 06:00:00 0,3 -6,7 5 3 26 14 SW 20 0 0,0
20.03.2019 05:00:00 2,7 -9,4 12 7 33 18 ENE 20 0 0,0
20.03.2019 04:00:00 3,0 -8,2 10 6 47 26 NE 20 0 0,0
20.03.2019 03:00:00 3,7 -6,7 27 15 47 25 NNE 20 0 0,0
20.03.2019 02:00:00 3,6 -6,7 23 12 44 24 N 20 0 0,0
20.03.2019 01:00:00 3,2 -6,0 16 9 43 23 NNE 20 0 -
20.03.2019 00:00:00 3,4 -6,4 21 12 42 23 NNE 20 0 0,0
19.03.2019 23:00:00 3,6 -5,7 16 9 42 23 N 20 0 0,0
19.03.2019 22:00:00 3,6 -6,4 23 12 47 26 N 20 0 0,0
19.03.2019 21:00:00 3,8 -6,7 28 15 47 25 N 20 0 0,0
19.03.2019 20:00:00 4,0 -6,4 27 14 49 26 NNE 20 0 0,0
19.03.2019 19:00:00 5,1 -5,7 22 12 40 22 NNE 20 8 -
19.03.2019 18:00:00 6,2 -4,5 18 10 44 24 NE 20 60 0,0
19.03.2019 17:00:00 7,2 -4,8 18 10 48 26 NNE 20 58 0,0
19.03.2019 16:00:00 7,7 -5,1 21 12 44 24 ENE 20 60 0,0
19.03.2019 15:00:00 8,1 -4,2 20 11 45 24 NE 20 60 0,0
19.03.2019 14:00:00 8,1 -5,4 18 10 41 22 NE 20 60 0,0
19.03.2019 13:00:00 7,9 -4,5 21 12 48 26 NE 20 60 -
19.03.2019 12:00:00 7,7 -5,1 24 13 49 26 NE 20 55 0,0
19.03.2019 11:00:00 6,4 -3,6 5 3 14 7 SE 20 9 0,0
19.03.2019 10:00:00 4,6 -3,0 8 5 19 10 SSE 20 0 0,0
19.03.2019 09:00:00 3,1 -2,0 8 4 20 11 WSW 20 0 0,0
19.03.2019 08:00:00 1,6 -2,0 3 2 6 4 S 20 0 0,0
19.03.2019 07:00:00 1,3 -1,7 3 2 8 4 NW 20 0 -
19.03.2019 06:00:00 1,0 -2,0 2 1 13 7 SW 20 0 0,0
19.03.2019 05:00:00 1,1 -2,2 3 2 8 4 SW 20 0 0,0
19.03.2019 04:00:00 1,5 -2,0 5 3 10 6 WNW 20 0 0,0
19.03.2019 03:00:00 1,8 -2,7 4 2 7 4 N 20 0 0,0
19.03.2019 02:00:00 1,5 -3,9 6 3 14 8 NNW 20 0 0,0
19.03.2019 01:00:00 1,7 -4,8 4 2 15 8 N 20 0 -
19.03.2019 00:00:00 2,7 -6,4 8 5 27 15 W 20 0 0,0
18.03.2019 23:00:00 3,4 -7,8 11 6 28 15 NNW 20 0 0,0
18.03.2019 22:00:00 3,7 -8,2 11 6 36 20 NNE 20 0 0,0
18.03.2019 21:00:00 4,4 -6,4 9 5 28 15 NW 20 0 0,0
18.03.2019 20:00:00 4,9 -5,7 19 10 42 23 N 20 0 0,0
18.03.2019 19:00:00 5,8 -6,0 16 9 45 24 N 20 7 -
18.03.2019 18:00:00 6,3 -8,2 23 12 50 27 NNE 20 60 0,0
18.03.2019 17:00:00 7,3 -9,0 20 11 45 25 NE 20 60 0,0

tt = temperature
td = dewpoint
ff = wind speed
fx = gusts
dd = wind direction
vv = visibility
sd = sunshine duration
rr = precipitation

Next stations